Time;durP1;ratioP1;P1;durP2;ratioP2;P2;SDS_P1;SDS_P2;PMS_P1;PMS_P2;Temp;Humidity;BMP_temperature;BMP_pressure;BME280_temperature;BME280_humidity;BME280_pressure;Samples;Min_cycle;Max_cycle;Signal;HPM_P1;HPM_P2
2021/06/06 00:00:59;;;;;;;;;10.25;8.00;;;;;17.59;100.00;102368.41;5075216;28;45379;-66
2021/06/06 00:03:28;;;;;;;;;10.00;10.00;;;;;17.53;100.00;102370.28;5077061;27;45494;-66
2021/06/06 00:05:58;;;;;;;;;11.00;10.00;;;;;17.53;100.00;102376.44;5076137;27;46209;-68
2021/06/06 00:08:25;;;;;;;;;9.75;9.75;;;;;17.49;100.00;102365.97;5076125;27;45821;-72
2021/06/06 00:10:56;;;;;;;;;12.00;9.75;;;;;17.48;100.00;102369.50;5075100;28;45521;-65
2021/06/06 00:13:23;;;;;;;;;9.00;8.00;;;;;17.46;100.00;102364.25;5076409;27;45351;-66
2021/06/06 00:15:48;;;;;;;;;10.75;9.50;;;;;17.34;100.00;102360.03;5068927;28;46389;-66
2021/06/06 00:18:14;;;;;;;;;9.00;8.50;;;;;17.36;100.00;102367.91;5067491;27;45388;-65
2021/06/06 00:20:40;;;;;;;;;11.50;10.75;;;;;17.34;100.00;102370.59;5071537;28;45388;-67
2021/06/06 00:23:06;;;;;;;;;7.50;7.00;;;;;17.34;100.00;102365.31;5076719;27;45438;-64
2021/06/06 00:25:33;;;;;;;;;9.75;8.00;;;;;17.31;100.00;102370.66;5076241;27;48000;-65
2021/06/06 00:27:58;;;;;;;;;9.00;8.25;;;;;17.29;100.00;102366.28;5076158;28;45634;-65
2021/06/06 00:30:24;;;;;;;;;8.75;8.75;;;;;17.25;100.00;102373.38;5075514;28;45504;-66
2021/06/06 00:32:50;;;;;;;;;9.25;8.25;;;;;17.19;100.00;102367.31;5076679;27;45451;-65
2021/06/06 00:35:16;;;;;;;;;8.25;8.00;;;;;17.10;100.00;102361.28;5075930;27;47371;-70
2021/06/06 00:37:42;;;;;;;;;12.25;11.00;;;;;17.08;100.00;102364.84;5075699;28;45901;-65
2021/06/06 00:40:10;;;;;;;;;9.75;8.00;;;;;17.02;100.00;102362.31;5076203;27;45166;-66
2021/06/06 00:42:36;;;;;;;;;7.00;7.00;;;;;16.98;100.00;102355.34;5071945;28;45450;-64
2021/06/06 00:45:06;;;;;;;;;7.50;7.50;;;;;16.97;100.00;102361.47;5070158;27;45572;-65
2021/06/06 00:47:32;;;;;;;;;9.50;9.00;;;;;16.92;100.00;102347.50;5068037;28;45714;-65
2021/06/06 00:49:58;;;;;;;;;8.00;7.00;;;;;16.92;100.00;102347.50;5073405;27;45310;-65
2021/06/06 00:52:24;;;;;;;;;7.00;7.00;;;;;16.89;100.00;102344.91;5071364;28;45549;-64
2021/06/06 00:54:53;;;;;;;;;7.00;6.00;;;;;16.78;100.00;102330.13;5076148;28;45419;-64
2021/06/06 00:57:24;;;;;;;;;9.25;8.50;;;;;16.73;100.00;102321.38;5071028;27;45562;-64
2021/06/06 01:00:11;;;;;;;;;8.50;7.50;;;;;16.83;100.00;102341.47;5066169;28;45525;-66
2021/06/06 01:02:38;;;;;;;;;9.75;9.00;;;;;16.76;100.00;102334.56;5074603;28;45449;-68
2021/06/06 01:05:16;;;;;;;;;9.75;9.75;;;;;16.76;100.00;102336.31;5075860;27;46517;-65
2021/06/06 01:07:42;;;;;;;;;10.00;9.00;;;;;16.69;100.00;102324.97;5061659;28;45682;-65
2021/06/06 01:10:08;;;;;;;;;9.75;9.50;;;;;16.69;100.00;102332.88;5064507;27;45694;-66
2021/06/06 01:12:42;;;;;;;;;7.00;6.25;;;;;16.66;100.00;102329.38;5070748;28;45488;-65
2021/06/06 01:15:15;;;;;;;;;8.25;8.00;;;;;16.63;100.00;102335.56;5075630;27;46403;-64
2021/06/06 01:17:46;;;;;;;;;9.75;8.75;;;;;16.65;100.00;102333.78;5063343;27;45549;-65
2021/06/06 01:20:20;;;;;;;;;11.50;8.00;;;;;16.63;100.00;102340.84;5064560;27;45423;-65
2021/06/06 01:23:18;;;;;;;;;10.25;9.25;;;;;16.60;100.00;102342.66;5073134;28;45584;-66
2021/06/06 01:25:50;;;;;;;;;8.00;7.25;;;;;16.50;100.00;102333.97;5052298;28;48237;-65
2021/06/06 01:28:24;;;;;;;;;9.50;8.75;;;;;16.50;100.00;102344.53;5046021;28;45492;-65
2021/06/06 01:30:54;;;;;;;;;10.00;8.75;;;;;16.45;100.00;102341.97;5047190;28;45442;-65
2021/06/06 01:33:33;;;;;;;;;7.00;6.75;;;;;16.40;100.00;102338.50;5048797;28;45426;-67
2021/06/06 01:36:09;;;;;;;;;11.50;7.00;;;;;16.36;100.00;102343.84;5051393;28;45726;-66
2021/06/06 01:38:58;;;;;;;;;7.00;7.00;;;;;16.31;100.00;102336.00;5041439;28;45692;-65
2021/06/06 01:41:33;;;;;;;;;8.25;8.25;;;;;16.24;100.00;102326.41;5052857;28;45408;-65
2021/06/06 01:44:02;;;;;;;;;8.75;7.75;;;;;16.22;100.00;102325.56;5052399;28;45396;-65
2021/06/06 01:46:39;;;;;;;;;9.50;7.25;;;;;16.17;100.00;102320.34;5052109;28;46437;-65
2021/06/06 01:49:06;;;;;;;;;8.00;8.00;;;;;16.16;100.00;102328.28;5049835;28;45683;-65
2021/06/06 01:51:35;;;;;;;;;11.50;8.25;;;;;16.15;100.00;102330.03;5035348;28;45409;-65
2021/06/06 01:54:02;;;;;;;;;10.25;8.00;;;;;16.06;100.00;102313.44;5053998;28;45488;-64
2021/06/06 01:56:32;;;;;;;;;7.25;7.00;;;;;15.93;100.00;102294.28;5055880;28;48074;-65
2021/06/06 01:59:01;;;;;;;;;8.00;7.75;;;;;16.06;100.00;102319.59;5055793;28;46344;-65
2021/06/06 02:01:27;;;;;;;;;7.00;5.75;;;;;15.97;100.00;102303.91;5051215;28;45409;-65
2021/06/06 02:03:55;;;;;;;;;11.00;8.75;;;;;16.03;100.00;102314.34;5072553;27;45391;-64
2021/06/06 02:06:26;;;;;;;;;8.75;7.00;;;;;16.00;100.00;102311.75;5069492;28;47499;-64
2021/06/06 02:08:52;;;;;;;;;9.00;9.00;;;;;15.93;100.00;102318.00;5073323;28;45569;-65
2021/06/06 02:11:25;;;;;;;;;8.75;8.75;;;;;15.88;100.00;102304.03;5072846;27;45277;-65
2021/06/06 02:14:02;;;;;;;;;7.25;7.00;;;;;15.88;100.00;102309.28;5074286;27;45516;-65
2021/06/06 02:16:33;;;;;;;;;10.75;7.75;;;;;15.83;100.00;102305.81;5075534;28;46476;-65
2021/06/06 02:18:59;;;;;;;;;9.25;7.50;;;;;15.81;100.00;102297.91;5074634;27;45457;-66
2021/06/06 02:21:24;;;;;;;;;6.25;5.75;;;;;15.83;100.00;102297.91;5068791;28;45364;-67
2021/06/06 02:23:50;;;;;;;;;7.75;7.75;;;;;15.87;100.00;102307.53;5078330;27;45318;-65
2021/06/06 02:26:25;;;;;;;;;11.75;8.25;;;;;15.83;100.00;102304.03;5078137;27;46349;-65
2021/06/06 02:29:00;;;;;;;;;9.00;8.00;;;;;15.75;100.00;102290.09;5064116;28;45281;-65
2021/06/06 02:31:29;;;;;;;;;9.25;7.25;;;;;15.77;100.00;102301.47;5076888;27;45807;-65
2021/06/06 02:33:58;;;;;;;;;10.00;8.00;;;;;15.76;100.00;102304.13;5072400;28;45454;-65
2021/06/06 02:36:24;;;;;;;;;11.00;9.75;;;;;15.72;100.00;102292.75;5070966;27;45621;-66
2021/06/06 02:39:18;;;;;;;;;9.75;7.25;;;;;15.69;100.00;102286.66;5069902;28;45341;-65
2021/06/06 02:41:48;;;;;;;;;8.00;7.25;;;;;15.67;100.00;102291.94;5077975;27;45525;-64
2021/06/06 02:44:26;;;;;;;;;11.25;10.00;;;;;15.68;100.00;102292.81;5078103;27;45407;-64
2021/06/06 02:46:53;;;;;;;;;7.25;6.75;;;;;15.60;100.00;102293.75;5077743;27;45647;-64
2021/06/06 02:49:23;;;;;;;;;7.00;7.00;;;;;15.61;100.00;102300.78;5063672;27;45459;-64
2021/06/06 02:52:01;;;;;;;;;8.50;8.50;;;;;15.54;100.00;102285.03;5073221;27;45482;-64
2021/06/06 02:54:32;;;;;;;;;9.25;7.00;;;;;15.44;100.00;102270.22;5073431;28;45597;-64
2021/06/06 02:57:07;;;;;;;;;8.50;7.75;;;;;15.47;100.00;102281.59;5072755;28;45773;-65
2021/06/06 02:59:58;;;;;;;;;8.75;7.50;;;;;15.49;100.00;102292.97;5061939;28;46981;-67
2021/06/06 03:02:33;;;;;;;;;8.50;8.50;;;;;15.48;100.00;102288.59;5076327;28;45400;-66
2021/06/06 03:05:00;;;;;;;;;8.50;8.00;;;;;15.45;100.00;102287.75;5078033;28;45416;-65
2021/06/06 03:07:31;;;;;;;;;12.50;11.00;;;;;15.47;100.00;102285.97;5077591;28;47291;-64
2021/06/06 03:09:57;;;;;;;;;10.00;10.00;;;;;15.42;100.00;102278.13;5077628;27;45451;-65
2021/06/06 03:12:25;;;;;;;;;10.00;8.25;;;;;15.42;100.00;102278.13;5075740;27;45414;-66
2021/06/06 03:14:50;;;;;;;;;9.25;8.25;;;;;15.47;100.00;102281.59;5076072;28;45596;-65
2021/06/06 03:17:50;;;;;;;;;9.50;8.25;;;;;15.49;100.00;102284.19;5057084;28;45420;-65
2021/06/06 03:20:21;;;;;;;;;11.00;10.00;;;;;15.42;100.00;102280.75;5028598;28;45740;-65
2021/06/06 03:22:49;;;;;;;;;9.25;8.00;;;;;15.38;100.00;102278.16;5034894;28;45358;-69
2021/06/06 03:25:24;;;;;;;;;9.75;8.25;;;;;15.33;100.00;102276.44;5024641;28;45534;-65
2021/06/06 03:27:49;;;;;;;;;11.00;10.00;;;;;15.27;100.00;102271.25;5031870;28;46213;-65
2021/06/06 03:30:15;;;;;;;;;11.75;10.25;;;;;15.27;100.00;102273.00;5030009;28;45771;-65
2021/06/06 03:32:44;;;;;;;;;8.00;8.00;;;;;15.22;100.00;102269.53;5034639;28;45488;-64
2021/06/06 03:35:10;;;;;;;;;9.00;8.50;;;;;15.15;100.00;102275.72;5033516;28;45286;-65
2021/06/06 03:37:37;;;;;;;;;10.00;7.50;;;;;15.13;100.00;102280.13;5033713;28;45296;-65
2021/06/06 03:40:05;;;;;;;;;11.00;8.75;;;;;15.10;100.00;102282.78;5032611;28;45373;-64
2021/06/06 03:42:30;;;;;;;;;11.75;6.00;;;;;15.05;100.00;102279.34;5017988;28;45825;-64
2021/06/06 03:44:56;;;;;;;;;11.75;10.00;;;;;15.06;100.00;102275.81;5034435;28;45510;-67
2021/06/06 03:47:22;;;;;;;;;10.00;9.75;;;;;14.99;100.00;102267.97;5016194;28;47452;-64
2021/06/06 03:49:48;;;;;;;;;7.00;7.00;;;;;15.02;100.00;102272.34;5014189;28;45470;-64
2021/06/06 03:52:14;;;;;;;;;7.00;6.50;;;;;15.02;100.00;102275.84;5025842;28;45532;-65
2021/06/06 03:54:39;;;;;;;;;9.00;9.00;;;;;14.99;100.00;102272.38;5034311;28;45440;-65
2021/06/06 03:57:06;;;;;;;;;10.50;8.75;;;;;14.90;100.00;102260.16;5063649;28;48498;-65
2021/06/06 03:59:31;;;;;;;;;7.00;6.75;;;;;14.84;100.00;102256.69;5064023;27;45701;-66
2021/06/06 04:01:56;;;;;;;;;9.00;8.50;;;;;14.87;100.00;102264.56;5077081;27;45304;-66
2021/06/06 04:04:22;;;;;;;;;12.00;8.25;;;;;14.86;100.00;102258.44;5076858;27;45292;-65
2021/06/06 04:06:47;;;;;;;;;10.75;9.00;;;;;14.79;100.00;102253.25;5075466;28;46283;-65
2021/06/06 04:09:13;;;;;;;;;6.25;6.25;;;;;14.77;100.00;102261.13;5071347;27;45308;-65
2021/06/06 04:11:39;;;;;;;;;10.00;10.00;;;;;14.73;100.00;102259.41;5076842;28;45446;-66
2021/06/06 04:14:06;;;;;;;;;9.75;9.75;;;;;14.73;100.00;102253.28;5076595;27;45360;-65
2021/06/06 04:16:32;;;;;;;;;9.00;7.00;;;;;14.65;100.00;102250.69;5074000;27;45481;-65
2021/06/06 04:18:57;;;;;;;;;10.75;8.00;;;;;14.69;100.00;102257.66;5064936;27;45404;-65
2021/06/06 04:21:26;;;;;;;;;7.75;7.50;;;;;14.66;100.00;102253.31;5076984;27;45314;-65
2021/06/06 04:23:51;;;;;;;;;10.00;8.25;;;;;14.61;100.00;102252.47;5076598;27;45463;-65
2021/06/06 04:26:18;;;;;;;;;11.75;11.00;;;;;14.68;100.00;102258.56;5071430;27;45550;-64
2021/06/06 04:28:44;;;;;;;;;8.25;7.00;;;;;14.64;100.00;102260.34;5076705;28;45770;-65
2021/06/06 04:31:10;;;;;;;;;10.25;7.25;;;;;14.64;100.00;102262.97;5076344;27;45399;-64
2021/06/06 04:33:36;;;;;;;;;9.75;9.00;;;;;14.69;100.00;102263.81;5074659;27;45563;-64
2021/06/06 04:36:02;;;;;;;;;10.50;9.00;;;;;14.67;100.00;102272.59;5076342;27;46614;-66
2021/06/06 04:38:30;;;;;;;;;6.00;6.00;;;;;14.65;100.00;102272.59;5075487;27;45324;-65
2021/06/06 04:41:00;;;;;;;;;7.50;7.00;;;;;14.62;100.00;102262.09;5076399;27;45352;-65
2021/06/06 04:43:26;;;;;;;;;6.50;5.50;;;;;14.63;100.00;102268.22;5076424;27;45389;-64
2021/06/06 04:45:52;;;;;;;;;8.25;7.00;;;;;14.64;100.00;102267.34;5075422;27;46243;-64
2021/06/06 04:48:22;;;;;;;;;6.00;6.00;;;;;14.63;100.00;102271.75;5075835;27;45323;-64
2021/06/06 04:50:49;;;;;;;;;7.00;7.00;;;;;14.58;100.00;102265.66;5074955;28;45376;-64
2021/06/06 04:53:15;;;;;;;;;11.25;10.00;;;;;14.62;100.00;102266.50;5070766;27;45726;-66
2021/06/06 04:55:42;;;;;;;;;0.00;0.00;;;;;14.62;100.00;102266.50;5076424;28;46433;-64
2021/06/06 04:58:12;;;;;;;;;8.75;7.25;;;;;14.68;100.00;102266.44;5075532;28;45423;-64
2021/06/06 05:00:41;;;;;;;;;1.50;1.50;;;;;14.71;100.00;102263.81;5071434;27;45396;-64
2021/06/06 05:03:07;;;;;;;;;7.25;6.75;;;;;14.77;100.00;102266.41;5072998;28;45385;-64
2021/06/06 05:05:33;;;;;;;;;6.50;6.50;;;;;14.78;100.00;102262.00;5075976;27;46579;-70
2021/06/06 05:08:01;;;;;;;;;8.00;6.75;;;;;14.84;100.00;102270.72;5070751;28;45282;-64
2021/06/06 05:10:28;;;;;;;;;8.00;7.25;;;;;14.84;100.00;102273.34;5075649;27;45410;-65
2021/06/06 05:12:54;;;;;;;;;7.25;6.75;;;;;14.83;100.00;102265.47;5075827;27;45383;-64
2021/06/06 05:15:21;;;;;;;;;11.00;9.00;;;;;14.87;100.00;102272.44;5068104;27;45419;-64
2021/06/06 05:17:47;;;;;;;;;9.25;8.75;;;;;14.88;100.00;102271.56;5062046;28;45392;-66
2021/06/06 05:20:14;;;;;;;;;11.25;7.75;;;;;14.85;100.00;102264.56;5073015;27;45436;-65
2021/06/06 05:22:39;;;;;;;;;7.00;7.00;;;;;14.93;100.00;102270.63;5076163;27;45403;-65
2021/06/06 05:25:06;;;;;;;;;6.75;6.75;;;;;14.97;100.00;102271.50;5075576;27;46344;-65
2021/06/06 05:27:32;;;;;;;;;10.00;6.50;;;;;15.01;100.00;102270.59;5072238;27;46033;-65
2021/06/06 05:29:57;;;;;;;;;9.00;7.00;;;;;15.01;100.00;102276.72;5069216;28;45615;-64
2021/06/06 05:32:23;;;;;;;;;5.50;5.00;;;;;15.05;100.00;102268.81;5065889;27;45310;-65
2021/06/06 05:34:48;;;;;;;;;5.50;5.00;;;;;15.08;100.00;102274.03;5077858;28;47699;-65
2021/06/06 05:37:14;;;;;;;;;7.75;7.00;;;;;15.11;100.00;102263.50;5078864;27;45434;-65
2021/06/06 05:39:41;;;;;;;;;8.50;7.00;;;;;15.18;100.00;102266.06;5073019;28;45478;-65
2021/06/06 05:42:07;;;;;;;;;8.00;7.00;;;;;15.26;100.00;102273.88;5064235;28;45476;-64
2021/06/06 05:44:33;;;;;;;;;7.00;7.00;;;;;15.29;100.00;102258.06;5078453;28;46233;-64
2021/06/06 05:46:59;;;;;;;;;4.75;4.50;;;;;15.42;100.00;102272.00;5078772;27;45553;-65
2021/06/06 05:49:24;;;;;;;;;6.00;6.00;;;;;15.44;100.00;102270.22;5076424;27;45499;-65
2021/06/06 05:51:50;;;;;;;;;7.00;7.00;;;;;15.51;100.00;102271.88;5066973;28;45543;-66
2021/06/06 05:54:15;;;;;;;;;7.50;7.00;;;;;15.55;100.00;102274.47;5079132;27;45715;-65
2021/06/06 05:56:43;;;;;;;;;6.75;6.75;;;;;15.61;100.00;102270.94;5076926;28;45369;-66
2021/06/06 05:59:08;;;;;;;;;10.25;7.75;;;;;15.67;100.00;102275.28;5074826;27;45512;-61
2021/06/06 06:01:33;;;;;;;;;7.50;7.25;;;;;15.67;100.00;102275.28;5073877;27;45373;-65
2021/06/06 06:03:59;;;;;;;;;8.75;8.00;;;;;15.75;100.00;102283.97;5077171;28;45387;-66
2021/06/06 06:06:25;;;;;;;;;6.00;6.00;;;;;15.77;100.00;102287.44;5072181;28;45991;-72
2021/06/06 06:08:51;;;;;;;;;7.25;7.25;;;;;15.82;100.00;102277.72;5065409;27;45400;-64
2021/06/06 06:11:18;;;;;;;;;6.00;5.50;;;;;15.90;100.00;102278.53;5073741;28;45830;-64
2021/06/06 06:13:45;;;;;;;;;6.25;6.00;;;;;15.96;100.00;102283.72;5067980;28;46446;-68
2021/06/06 06:16:13;;;;;;;;;8.00;7.00;;;;;15.94;100.00;102272.31;5074085;27;45458;-70
2021/06/06 06:18:39;;;;;;;;;5.00;4.00;;;;;16.04;100.00;102284.47;5077680;27;45338;-71
2021/06/06 06:21:09;;;;;;;;;4.75;4.75;;;;;16.07;100.00;102278.31;5071393;27;45523;-68
2021/06/06 06:23:34;;;;;;;;;8.75;6.00;;;;;16.11;100.00;102283.53;5077321;28;45409;-70
2021/06/06 06:26:00;;;;;;;;;5.25;5.00;;;;;16.20;100.00;102283.41;5078231;27;45256;-68
2021/06/06 06:28:26;;;;;;;;;5.25;5.25;;;;;16.20;100.00;102272.00;5077722;27;45337;-68
2021/06/06 06:30:52;;;;;;;;;5.00;4.25;;;;;16.19;100.00;102263.22;5074290;27;45335;-68
2021/06/06 06:33:17;;;;;;;;;4.25;4.00;;;;;16.32;100.00;102284.16;5067670;28;45500;-66
2021/06/06 06:35:43;;;;;;;;;3.75;3.75;;;;;16.31;100.00;102277.16;5076720;27;45511;-67
2021/06/06 06:38:09;;;;;;;;;4.25;4.25;;;;;16.36;100.00;102288.50;5072036;28;45429;-67
2021/06/06 06:40:35;;;;;;;;;4.25;4.00;;;;;16.36;100.00;102293.75;5078253;28;45483;-73
2021/06/06 06:43:01;;;;;;;;;5.00;4.25;;;;;16.33;100.00;102284.13;5077127;27;45825;-72
2021/06/06 06:45:34;;;;;;;;;2.25;2.00;;;;;16.42;100.00;102296.31;5076259;28;45484;-70
2021/06/06 06:48:02;;;;;;;;;4.00;4.00;;;;;16.42;100.00;102296.31;5077426;28;45349;-71
2021/06/06 06:50:29;;;;;;;;;4.50;4.00;;;;;16.41;100.00;102290.16;5077705;27;45474;-71
2021/06/06 06:52:56;;;;;;;;;5.50;4.00;;;;;16.51;100.00;102288.25;5075715;27;46253;-71
2021/06/06 06:55:22;;;;;;;;;4.00;3.25;;;;;16.60;100.00;102295.19;5075996;28;45612;-72
2021/06/06 06:57:47;;;;;;;;;3.50;3.25;;;;;16.57;100.00;102279.41;5076294;27;45369;-72
2021/06/06 07:00:20;;;;;;;;;7.25;5.00;;;;;16.70;100.00;102295.06;5072268;28;45775;-72
2021/06/06 07:02:46;;;;;;;;;4.25;4.25;;;;;16.76;100.00;102302.91;5077161;27;46327;-72
2021/06/06 07:05:13;;;;;;;;;4.50;3.25;;;;;16.81;100.00;102306.34;5072978;28;45414;-72
2021/06/06 07:07:39;;;;;;;;;2.50;2.50;;;;;16.87;100.00;102297.44;5075656;27;45587;-71
2021/06/06 07:10:06;;;;;;;;;5.50;4.75;;;;;16.98;100.00;102305.22;5077417;28;45389;-69
2021/06/06 07:12:32;;;;;;;;;4.75;4.25;;;;;17.02;100.00;102294.56;5075318;28;47585;-69
2021/06/06 07:14:57;;;;;;;;;4.00;4.00;;;;;17.00;100.00;102274.38;5076183;27;45538;-68
2021/06/06 07:17:23;;;;;;;;;3.25;3.25;;;;;17.07;100.00;102287.44;5076654;27;45412;-69
2021/06/06 07:19:48;;;;;;;;;4.25;3.50;;;;;17.27;100.00;102302.09;5066660;27;45514;-70
2021/06/06 07:22:13;;;;;;;;;5.75;4.75;;;;;17.26;100.00;102284.50;5062925;27;46283;-71
2021/06/06 07:24:39;;;;;;;;;4.75;3.00;;;;;17.31;100.00;102286.16;5068458;27;45367;-70
2021/06/06 07:27:05;;;;;;;;;5.00;4.50;;;;;17.41;100.00;102303.56;5065361;27;45861;-70
2021/06/06 07:29:31;;;;;;;;;4.50;3.25;;;;;17.44;100.00;102290.34;5063192;28;45439;-70
2021/06/06 07:31:58;;;;;;;;;6.50;5.75;;;;;17.49;100.00;102295.53;5064111;28;47398;-68
2021/06/06 07:34:26;;;;;;;;;4.50;3.75;;;;;17.56;100.00;102285.72;5074659;28;45553;-69
2021/06/06 07:36:56;;;;;;;;;4.50;4.50;;;;;17.63;100.00;102285.56;5076270;28;45725;-69
2021/06/06 07:39:22;;;;;;;;;4.00;4.00;;;;;17.79;100.00;102296.75;5067706;27;45968;-67
2021/06/06 07:41:48;;;;;;;;;5.25;3.75;;;;;17.84;100.00;102292.25;5076334;27;45654;-69
2021/06/06 07:44:14;;;;;;;;;2.00;2.00;;;;;17.96;100.00;102285.84;5075843;27;46043;-71
2021/06/06 07:46:39;;;;;;;;;3.00;2.75;;;;;18.05;100.00;102280.38;5076572;27;45432;-67
2021/06/06 07:49:05;;;;;;;;;2.50;2.50;;;;;18.13;100.00;102280.25;5076972;27;45523;-69
2021/06/06 07:51:31;;;;;;;;;3.00;2.25;;;;;18.12;100.00;102262.63;5075357;27;45453;-69
2021/06/06 07:53:57;;;;;;;;;1.75;1.75;;;;;18.21;100.00;102276.50;5076210;27;45726;-68
2021/06/06 07:56:23;;;;;;;;;3.00;2.00;;;;;18.31;100.00;102278.03;5076173;27;45352;-67
2021/06/06 07:58:49;;;;;;;;;2.75;2.00;;;;;18.40;100.00;102282.28;5076364;27;45595;-68
2021/06/06 08:01:15;;;;;;;;;1.00;1.00;;;;;18.49;100.00;102286.47;5070568;27;46395;-68
2021/06/06 08:03:40;;;;;;;;;0.75;0.50;;;;;18.48;100.00;102275.03;5063587;28;45368;-68
2021/06/06 08:06:10;;;;;;;;;2.25;2.00;;;;;18.61;100.00;102281.78;5072021;27;45447;-68
2021/06/06 08:08:35;;;;;;;;;3.00;3.00;;;;;18.58;100.00;102266.00;5056557;28;45470;-68
2021/06/06 08:11:03;;;;;;;;;2.25;2.00;;;;;18.67;100.00;102271.09;5079165;27;46252;-70
2021/06/06 08:13:29;;;;;;;;;3.75;2.00;;;;;18.83;100.00;102282.19;5075789;27;45769;-69
2021/06/06 08:15:55;;;;;;;;;2.75;2.75;;;;;18.87;100.00;102277.69;5077381;27;45498;-72
2021/06/06 08:18:32;;;;;;;;;3.00;2.00;;;;;18.99;100.00;102272.09;5079080;27;45527;-71
2021/06/06 08:21:12;;;;;;;;;1.75;1.00;;;;;19.04;100.00;102269.34;5073198;27;45522;-72
2021/06/06 08:23:38;;;;;;;;;2.25;2.25;;;;;19.17;100.00;102276.94;5073038;27;45446;-72
2021/06/06 08:26:05;;;;;;;;;1.00;1.00;;;;;19.24;100.00;102272.38;5070963;27;45553;-72
2021/06/06 08:28:31;;;;;;;;;2.00;1.50;;;;;19.32;100.00;102273.03;5075774;27;45553;-70
2021/06/06 08:31:05;;;;;;;;;1.00;1.00;;;;;19.38;100.00;102270.22;5076415;27;46291;-70
2021/06/06 08:33:32;;;;;;;;;2.50;1.00;;;;;19.51;100.00;102274.28;5075344;27;45651;-70
2021/06/06 08:36:02;;;;;;;;;1.00;1.00;;;;;19.62;100.00;102265.19;5072316;27;45559;-70
2021/06/06 08:38:29;;;;;;;;;3.50;2.50;;;;;19.76;100.00;102258.59;5075935;27;45569;-71
2021/06/06 08:41:16;;;;;;;;;2.00;2.00;;;;;19.95;100.00;102261.59;5075350;27;46450;-71
2021/06/06 08:43:48;;;;;;;;;7.50;7.50;;;;;20.13;100.00;102263.69;5074861;27;45713;-72
2021/06/06 08:46:15;;;;;;;;;3.75;3.00;;;;;20.26;100.00;102245.66;5070662;27;45775;-71
2021/06/06 08:48:41;;;;;;;;;1.25;1.25;;;;;20.51;100.00;102264.34;5072555;28;45471;-71
2021/06/06 08:51:35;;;;;;;;;2.00;1.75;;;;;20.70;100.00;102257.53;5074673;28;45709;-71
2021/06/06 08:54:33;;;;;;;;;2.00;1.00;;;;;20.91;100.00;102261.28;5075149;27;45327;-71
2021/06/06 08:57:23;;;;;;;;;1.00;1.00;;;;;21.15;100.00;102264.03;5063547;28;45422;-71
2021/06/06 08:59:54;;;;;;;;;2.00;2.00;;;;;21.34;100.00;102246.59;5075199;27;45392;-71
2021/06/06 09:02:31;;;;;;;;;1.25;1.25;;;;;21.68;100.00;102260.38;5077119;28;46467;-71
2021/06/06 09:04:57;;;;;;;;;1.00;1.00;;;;;21.92;100.00;102252.44;5077651;28;46059;-70
2021/06/06 09:07:37;;;;;;;;;1.75;1.00;;;;;22.18;100.00;102255.03;5078904;27;45383;-70
2021/06/06 09:10:13;;;;;;;;;1.75;1.75;;;;;22.43;100.00;102246.09;5078954;27;45320;-70
2021/06/06 09:12:39;;;;;;;;;4.50;4.50;;;;;22.62;100.00;102247.06;5071134;28;47467;-70
2021/06/06 09:15:08;;;;;;;;;2.00;1.75;;;;;22.88;100.00;102252.25;5078525;27;45446;-70
2021/06/06 09:17:36;;;;;;;;;2.00;2.00;;;;;23.12;100.00;102249.47;5064279;27;45438;-71
2021/06/06 09:20:04;;;;;;;;;2.25;1.25;;;;;23.35;100.00;102252.00;5079122;27;45411;-71
2021/06/06 09:22:41;;;;;;;;;3.50;2.50;;;;;23.52;100.00;102252.09;5077808;27;45467;-71
2021/06/06 09:25:26;;;;;;;;;1.50;1.50;;;;;23.72;100.00;102245.06;5078821;27;45389;-70
2021/06/06 09:28:04;;;;;;;;;2.00;2.00;;;;;24.04;100.00;102241.78;5077531;28;45426;-71
2021/06/06 09:30:30;;;;;;;;;3.25;2.75;;;;;24.25;100.00;102241.72;5078755;27;45521;-71
2021/06/06 09:33:26;;;;;;;;;3.00;2.50;;;;;24.39;100.00;102240.13;5077961;27;45316;-71
2021/06/06 09:35:58;;;;;;;;;3.50;3.50;;;;;24.76;100.00;102246.34;5077955;28;45446;-70
2021/06/06 09:38:30;;;;;;;;;2.00;2.00;;;;;25.14;100.00;102240.94;5078846;27;45406;-72
2021/06/06 09:41:07;;;;;;;;;2.00;2.00;;;;;25.38;100.00;102238.78;5078047;27;45724;-74
2021/06/06 09:43:33;;;;;;;;;3.00;3.00;;;;;25.72;100.00;102252.13;5077550;27;46648;-74
2021/06/06 09:46:04;;;;;;;;;2.00;2.00;;;;;26.09;100.00;102250.13;5078139;28;45355;-74
2021/06/06 09:48:32;;;;;;;;;2.75;2.75;;;;;26.49;100.00;102251.47;5078592;27;45502;-77
2021/06/06 09:51:24;;;;;;;;;4.75;2.00;;;;;26.92;100.00;102246.25;5077633;27;45358;-79
2021/06/06 09:53:52;;;;;;;;;4.00;4.00;;;;;27.24;100.00;102239.88;5070812;28;46490;-78
2021/06/06 09:56:20;;;;;;;;;4.00;4.00;;;;;27.69;100.00;102249.66;5077432;27;45390;-79
2021/06/06 09:58:46;;;;;;;;;2.00;1.75;;;;;28.18;100.00;102232.25;5078391;27;45382;-78
2021/06/06 10:01:24;;;;;;;;;4.00;3.50;;;;;28.77;100.00;102251.69;5079077;28;45341;-77
2021/06/06 10:03:57;;;;;;;;;2.25;2.00;;;;;28.87;100.00;102236.66;5069421;28;45670;-80
2021/06/06 10:06:31;;;;;;;;;2.50;2.50;;;;;29.69;100.00;102244.44;5075604;28;45607;-79
2021/06/06 10:08:58;;;;;;;;;3.25;2.75;;;;;30.50;100.00;102241.22;5068301;28;45335;-78
2021/06/06 10:11:45;;;;;;;;;3.25;3.25;;;;;31.87;100.00;102235.97;5084818;27;45373;-79
2021/06/06 10:14:11;;;;;;;;;4.50;4.50;;;;;33.79;100.00;102237.78;5076820;27;45480;-72
2021/06/06 10:16:40;;;;;;;;;4.75;2.25;;;;;35.23;100.00;102234.38;5072284;27;45479;-71
2021/06/06 10:19:30;;;;;;;;;3.50;3.50;;;;;36.34;100.00;102222.66;5077432;27;45509;-71
2021/06/06 10:22:02;;;;;;;;;3.00;3.00;;;;;35.14;100.00;102231.72;5077688;27;45374;-71
2021/06/06 10:25:06;;;;;;;;;1.75;1.75;;;;;32.85;100.00;102238.75;5075997;28;45487;-72
2021/06/06 10:27:42;;;;;;;;;3.50;2.25;;;;;31.26;100.00;102215.69;5030143;28;46216;-71
2021/06/06 10:30:20;;;;;;;;;3.00;2.00;;;;;30.52;100.00;102219.53;5035286;28;45378;-71
2021/06/06 10:32:47;;;;;;;;;3.75;3.50;;;;;30.31;100.00;102232.78;5033782;28;46307;-72
2021/06/06 10:35:15;;;;;;;;;6.25;5.75;;;;;30.05;100.00;102230.16;5034560;28;46191;-70
2021/06/06 10:37:43;;;;;;;;;3.00;2.25;;;;;29.95;100.00;102239.00;5034098;28;45366;-68
2021/06/06 10:40:20;;;;;;;;;3.25;3.25;;;;;30.56;100.00;102226.44;5032806;28;45524;-70
2021/06/06 10:43:21;;;;;;;;;5.00;4.00;;;;;29.93;100.00;102225.66;5026624;28;45503;-70
2021/06/06 10:45:55;;;;;;;;;3.50;2.75;;;;;29.31;100.00;102224.69;5025171;28;45509;-70
2021/06/06 10:48:29;;;;;;;;;2.00;2.00;;;;;28.66;100.00;102233.56;5032510;28;45430;-68
2021/06/06 10:51:47;;;;;;;;;2.50;2.50;;;;;28.08;100.00;102229.31;5016415;28;45481;-69
2021/06/06 10:54:40;;;;;;;;;2.75;2.25;;;;;29.55;100.00;102231.94;5013456;28;45799;-70
2021/06/06 10:57:08;;;;;;;;;3.25;2.75;;;;;32.14;100.00;102234.72;4996728;28;47068;-71
2021/06/06 10:59:47;;;;;;;;;2.00;2.00;;;;;33.66;100.00;102223.59;5014673;28;45848;-68
2021/06/06 11:02:33;;;;;;;;;4.00;2.25;;;;;34.79;100.00;102226.84;5017555;28;45483;-68
2021/06/06 11:05:02;;;;;;;;;2.00;2.00;;;;;34.25;100.00;102220.94;5072517;28;45690;-67
2021/06/06 11:07:36;;;;;;;;;2.00;2.00;;;;;33.52;100.00;102223.97;5073910;28;45450;-64
2021/06/06 11:10:34;;;;;;;;;3.00;3.00;;;;;32.70;100.00;102219.22;5071680;28;46204;-63
2021/06/06 11:13:13;;;;;;;;;3.25;3.00;;;;;31.88;100.00;102216.09;5086148;27;45476;-66
2021/06/06 11:15:53;;;;;;;;;4.00;2.75;;;;;31.35;100.00;102213.13;5071606;27;45677;-70
2021/06/06 11:18:21;;;;;;;;;3.00;3.00;;;;;31.07;100.00;102208.13;5046147;28;47163;-72
2021/06/06 11:20:53;;;;;;;;;3.25;3.00;;;;;31.40;100.00;102204.66;5073019;28;45595;-65
2021/06/06 11:23:53;;;;;;;;;7.00;6.25;;;;;31.99;100.00;102207.13;5073130;28;45481;-64
2021/06/06 11:26:20;;;;;;;;;4.75;4.00;;;;;32.03;100.00;102208.59;4972575;28;45545;-68
2021/06/06 11:28:48;;;;;;;;;2.25;2.00;;;;;32.28;100.00;102207.44;4973599;28;46375;-68